Time;durP1;ratioP1;P1;durP2;ratioP2;P2;SDS_P1;SDS_P2;PMS_P1;PMS_P2;Temp;Humidity;BMP_temperature;BMP_pressure;BME280_temperature;BME280_humidity;BME280_pressure;Samples;Min_cycle;Max_cycle;Signal;HPM_P1;HPM_P2
2022/04/29 00:02:06;;;;;;;3.38;1.30;;;6.40;99.90;;;;;;4918896;29;20122;-73
2022/04/29 00:04:32;;;;;;;1.08;0.75;;;6.40;99.90;;;;;;4902995;29;20055;-73
2022/04/29 00:06:59;;;;;;;1.30;0.65;;;6.40;99.90;;;;;;4918516;29;20377;-73
2022/04/29 00:09:24;;;;;;;1.58;0.85;;;6.40;99.90;;;;;;4903022;29;20040;-73
2022/04/29 00:11:51;;;;;;;2.07;0.90;;;6.30;99.90;;;;;;4918604;29;20104;-72
2022/04/29 00:14:16;;;;;;;2.50;1.00;;;6.30;99.90;;;;;;4918876;29;20292;-72
2022/04/29 00:16:43;;;;;;;4.07;1.00;;;6.30;99.90;;;;;;4918980;29;20460;-73
2022/04/29 00:19:09;;;;;;;1.92;0.90;;;6.30;99.90;;;;;;4917548;29;20517;-73
2022/04/29 00:21:35;;;;;;;1.95;1.00;;;6.30;99.90;;;;;;4902323;29;20130;-73
2022/04/29 00:24:00;;;;;;;3.33;0.80;;;6.30;99.90;;;;;;4918636;29;20054;-73
2022/04/29 00:26:26;;;;;;;0.80;0.52;;;6.30;99.90;;;;;;4918235;29;20050;-73
2022/04/29 00:28:52;;;;;;;1.30;0.60;;;6.30;99.90;;;;;;4918480;29;20462;-73
2022/04/29 00:31:17;;;;;;;7.53;1.10;;;6.30;99.90;;;;;;4918385;29;20111;-73
2022/04/29 00:33:43;;;;;;;3.50;1.20;;;6.30;99.90;;;;;;4918601;29;20391;-73
2022/04/29 00:36:09;;;;;;;1.73;0.88;;;6.30;99.90;;;;;;4918315;29;20759;-74
2022/04/29 00:38:35;;;;;;;2.72;1.13;;;6.30;99.90;;;;;;4918375;29;20047;-72
2022/04/29 00:41:00;;;;;;;1.85;0.80;;;6.30;99.90;;;;;;4918005;29;20047;-73
2022/04/29 00:43:27;;;;;;;1.15;0.90;;;6.30;99.90;;;;;;4918120;29;20051;-73
2022/04/29 00:45:53;;;;;;;1.40;0.80;;;6.20;99.90;;;;;;4918073;29;20609;-72
2022/04/29 00:48:18;;;;;;;2.97;1.10;;;6.20;99.90;;;;;;4917915;29;20043;-73
2022/04/29 00:50:44;;;;;;;2.80;0.95;;;6.20;99.90;;;;;;4902115;29;20054;-73
2022/04/29 00:53:12;;;;;;;1.05;0.73;;;6.10;99.90;;;;;;4918260;29;20044;-73
2022/04/29 00:55:39;;;;;;;1.90;0.80;;;6.10;99.90;;;;;;4934950;29;20052;-72
2022/04/29 00:58:20;;;;;;;1.25;0.90;;;6.10;99.90;;;;;;4902155;29;20048;-72
2022/04/29 01:00:46;;;;;;;1.25;0.52;;;6.00;99.90;;;;;;4917791;29;20055;-72
2022/04/29 01:03:13;;;;;;;0.60;0.55;;;6.00;99.90;;;;;;4902001;29;20051;-73
2022/04/29 01:05:40;;;;;;;1.95;0.80;;;5.90;99.90;;;;;;4901808;29;20044;-73
2022/04/29 01:08:06;;;;;;;1.15;0.70;;;5.90;99.90;;;;;;4917620;29;20051;-73
2022/04/29 01:10:32;;;;;;;2.10;0.60;;;5.90;99.90;;;;;;4934666;29;20066;-73
2022/04/29 01:13:01;;;;;;;1.10;0.60;;;5.90;99.90;;;;;;4917893;29;20547;-73
2022/04/29 01:15:28;;;;;;;2.67;1.08;;;5.80;99.90;;;;;;4917766;29;20051;-73
2022/04/29 01:18:02;;;;;;;1.67;1.05;;;5.80;99.90;;;;;;4902000;29;20056;-74
2022/04/29 01:20:30;;;;;;;1.80;1.20;;;5.80;99.90;;;;;;4917383;29;20048;-74
2022/04/29 01:22:56;;;;;;;2.20;1.08;;;5.90;99.90;;;;;;4917244;29;20415;-74
2022/04/29 01:25:22;;;;;;;2.70;1.70;;;5.90;99.90;;;;;;4917236;29;20131;-75
2022/04/29 01:27:49;;;;;;;1.95;1.00;;;5.90;99.90;;;;;;4917177;29;20134;-73
2022/04/29 01:30:18;;;;;;;2.35;1.23;;;5.90;99.90;;;;;;4934382;29;20055;-73
2022/04/29 01:32:44;;;;;;;1.83;0.80;;;5.90;99.90;;;;;;4917482;29;20083;-73
2022/04/29 01:35:12;;;;;;;1.73;1.40;;;5.90;99.90;;;;;;4934743;29;20049;-73
2022/04/29 01:37:38;;;;;;;1.90;1.23;;;6.00;99.90;;;;;;4917529;29;20147;-73
2022/04/29 01:40:05;;;;;;;;;;;6.10;99.90;;;;;;4917471;29;20047;-73
2022/04/29 01:42:30;;;;;;;2.88;1.33;;;6.10;99.90;;;;;;4916777;29;19922;-74
2022/04/29 01:44:56;;;;;;;1.15;1.05;;;6.10;99.90;;;;;;4916710;29;20139;-74
2022/04/29 01:47:22;;;;;;;2.25;1.38;;;6.10;99.90;;;;;;4916756;29;20044;-74
2022/04/29 01:49:48;;;;;;;2.38;1.20;;;6.10;99.90;;;;;;4917006;29;20039;-74
2022/04/29 01:52:14;;;;;;;2.67;1.40;;;6.10;99.90;;;;;;4916716;29;20460;-73
2022/04/29 01:54:40;;;;;;;2.17;1.02;;;6.10;99.90;;;;;;4916785;29;20094;-73
2022/04/29 01:57:07;;;;;;;2.30;0.98;;;6.00;99.90;;;;;;4916797;29;20044;-73
2022/04/29 01:59:33;;;;;;;2.45;0.80;;;6.00;99.90;;;;;;4916902;29;20055;-72
2022/04/29 02:01:59;;;;;;;;;;;6.00;99.90;;;;;;4915346;29;20514;-73
2022/04/29 02:04:25;;;;;;;4.95;2.17;;;6.00;99.90;;;;;;4916727;29;19918;-72
2022/04/29 02:06:51;;;;;;;2.90;2.00;;;6.00;99.90;;;;;;4914403;29;20060;-73
2022/04/29 02:09:17;;;;;;;4.28;1.77;;;6.10;99.90;;;;;;4916294;29;20055;-73
2022/04/29 02:12:04;;;;;;;3.58;1.60;;;6.10;99.90;;;;;;4916602;29;20495;-72
2022/04/29 02:14:29;;;;;;;3.65;1.40;;;6.10;99.90;;;;;;4915792;29;20044;-74
2022/04/29 02:16:56;;;;;;;1.95;1.30;;;6.10;99.90;;;;;;4916524;29;20166;-73
2022/04/29 02:19:22;;;;;;;1.70;1.25;;;6.10;99.90;;;;;;4916360;29;20123;-74
2022/04/29 02:21:49;;;;;;;1.45;1.00;;;6.10;99.90;;;;;;4916491;29;20044;-74
2022/04/29 02:24:15;;;;;;;3.50;1.20;;;6.10;99.90;;;;;;4916939;29;20110;-72
2022/04/29 02:26:41;;;;;;;1.35;0.90;;;6.10;99.90;;;;;;4900580;29;20116;-72
2022/04/29 02:29:07;;;;;;;0.85;0.65;;;6.10;99.90;;;;;;4885327;29;20427;-73
2022/04/29 02:31:33;;;;;;;1.23;0.68;;;6.00;99.90;;;;;;4916721;29;20503;-72
2022/04/29 02:33:59;;;;;;;1.33;0.70;;;6.10;99.90;;;;;;4900715;29;20046;-73
2022/04/29 02:36:25;;;;;;;1.48;0.70;;;6.10;99.90;;;;;;4916620;29;20123;-72
2022/04/29 02:38:51;;;;;;;0.43;0.43;;;6.10;99.90;;;;;;4916290;29;20360;-73
2022/04/29 02:41:17;;;;;;;1.08;0.50;;;6.10;99.90;;;;;;4900455;29;20537;-73
2022/04/29 02:43:43;;;;;;;0.65;0.60;;;6.10;99.90;;;;;;4916516;29;20126;-73
2022/04/29 02:46:09;;;;;;;0.60;0.50;;;6.10;99.90;;;;;;4900465;29;20118;-73
2022/04/29 02:48:35;;;;;;;0.47;0.40;;;6.20;99.90;;;;;;4916128;29;20036;-72
2022/04/29 02:51:02;;;;;;;1.50;0.50;;;6.10;99.90;;;;;;4916162;29;20507;-72
2022/04/29 02:53:29;;;;;;;0.50;0.50;;;6.10;99.90;;;;;;4916331;29;20131;-72
2022/04/29 02:55:54;;;;;;;2.28;0.80;;;6.10;99.90;;;;;;4916359;29;20047;-72
2022/04/29 02:58:20;;;;;;;1.05;0.60;;;6.10;99.90;;;;;;4916150;29;20056;-73
2022/04/29 03:00:45;;;;;;;2.17;0.90;;;6.20;99.90;;;;;;4900459;29;20087;-72
2022/04/29 03:03:11;;;;;;;1.00;0.70;;;6.20;99.90;;;;;;4900231;29;20127;-72
2022/04/29 03:05:38;;;;;;;1.08;0.80;;;6.20;99.90;;;;;;4916086;29;20347;-72
2022/04/29 03:08:04;;;;;;;1.02;0.70;;;6.20;99.90;;;;;;4900602;29;20454;-73
2022/04/29 03:10:30;;;;;;;0.60;0.60;;;6.20;99.90;;;;;;4933386;29;20138;-72
2022/04/29 03:12:55;;;;;;;1.95;0.73;;;6.20;99.90;;;;;;4916275;29;20090;-73
2022/04/29 03:15:25;;;;;;;0.52;0.52;;;6.30;99.90;;;;;;4933322;29;20498;-73
2022/04/29 03:20:37;;;;;;;2.40;0.95;;;6.20;99.90;;;;;;4918756;29;20111;-73
2022/04/29 03:23:04;;;;;;;1.40;0.90;;;6.20;99.90;;;;;;4919960;29;20072;-73
2022/04/29 03:25:30;;;;;;;1.80;0.90;;;6.20;99.90;;;;;;4919929;29;20047;-73
2022/04/29 03:27:55;;;;;;;0.93;0.77;;;6.20;99.90;;;;;;4936866;29;20051;-73
2022/04/29 03:30:21;;;;;;;1.20;0.80;;;6.20;99.90;;;;;;4919396;29;20111;-73
2022/04/29 03:32:54;;;;;;;1.13;0.80;;;6.20;99.90;;;;;;4919643;29;20055;-73
2022/04/29 03:35:21;;;;;;;2.17;0.90;;;6.20;99.90;;;;;;4919457;29;20055;-73
2022/04/29 03:37:51;;;;;;;1.02;0.65;;;6.20;99.90;;;;;;4919266;29;20055;-72
2022/04/29 03:40:17;;;;;;;0.80;0.65;;;6.20;99.90;;;;;;4919329;29;20058;-72
2022/04/29 03:42:43;;;;;;;0.70;0.60;;;6.20;99.90;;;;;;4919204;29;20054;-73
2022/04/29 03:45:09;;;;;;;0.63;0.50;;;6.20;99.90;;;;;;4919072;29;20048;-73
2022/04/29 03:47:35;;;;;;;0.75;0.50;;;6.20;99.90;;;;;;4919286;29;20043;-73
2022/04/29 03:50:01;;;;;;;1.05;0.50;;;6.20;99.90;;;;;;4903316;29;20050;-74
2022/04/29 03:52:27;;;;;;;1.27;0.80;;;6.20;99.90;;;;;;4918970;29;20056;-74
2022/04/29 03:54:53;;;;;;;2.53;0.80;;;6.20;99.90;;;;;;4918922;29;20171;-74
2022/04/29 03:57:18;;;;;;;1.38;1.00;;;6.20;99.90;;;;;;4918649;29;20194;-74
2022/04/29 03:59:44;;;;;;;1.73;1.08;;;6.20;99.90;;;;;;4918900;29;20084;-74
2022/04/29 04:02:10;;;;;;;1.08;0.85;;;6.20;99.90;;;;;;4917874;29;20058;-73
2022/04/29 04:04:35;;;;;;;2.15;1.00;;;6.30;99.90;;;;;;4918126;29;20254;-74
2022/04/29 04:07:02;;;;;;;1.10;0.70;;;6.30;99.90;;;;;;4918097;29;20050;-74
2022/04/29 04:09:27;;;;;;;;;;;6.30;99.90;;;;;;4919009;29;20059;-74
2022/04/29 04:11:53;;;;;;;0.98;0.90;;;6.30;99.90;;;;;;4918438;29;19981;-74
2022/04/29 04:14:19;;;;;;;1.13;0.70;;;6.30;99.90;;;;;;4918768;29;20058;-73
2022/04/29 04:16:45;;;;;;;0.90;0.60;;;6.30;99.90;;;;;;4935664;29;20479;-73
2022/04/29 04:19:11;;;;;;;0.57;0.57;;;6.30;99.90;;;;;;4935561;29;20043;-73
2022/04/29 04:21:37;;;;;;;0.60;0.55;;;6.30;99.90;;;;;;4935380;29;20566;-74
2022/04/29 04:24:03;;;;;;;0.82;0.57;;;6.30;99.90;;;;;;4918557;29;20051;-74
2022/04/29 04:26:29;;;;;;;0.52;0.50;;;6.30;99.90;;;;;;4918062;29;20506;-73
2022/04/29 04:28:54;;;;;;;0.40;0.40;;;6.30;99.90;;;;;;4918498;29;20048;-73
2022/04/29 04:31:21;;;;;;;1.33;0.70;;;6.30;99.90;;;;;;4917946;29;20546;-73
2022/04/29 04:33:48;;;;;;;1.77;0.60;;;6.30;99.90;;;;;;4918463;29;20055;-73
2022/04/29 04:36:14;;;;;;;2.03;0.70;;;6.30;99.90;;;;;;4918190;29;20048;-73
2022/04/29 04:38:40;;;;;;;0.50;0.50;;;6.40;99.90;;;;;;4918274;29;20062;-73
2022/04/29 04:41:07;;;;;;;0.60;0.60;;;6.40;99.90;;;;;;4902115;29;20035;-73
2022/04/29 04:43:33;;;;;;;0.82;0.68;;;6.40;99.90;;;;;;4902510;29;20137;-73
2022/04/29 04:45:59;;;;;;;1.17;0.85;;;6.50;99.90;;;;;;4917820;29;20048;-73
2022/04/29 04:48:24;;;;;;;2.08;1.20;;;6.50;99.90;;;;;;4917950;29;20051;-73
2022/04/29 04:50:50;;;;;;;1.88;1.25;;;6.60;99.90;;;;;;4917884;29;20047;-73
2022/04/29 04:53:16;;;;;;;2.30;1.20;;;6.70;99.90;;;;;;4917942;29;20154;-73
2022/04/29 04:55:41;;;;;;;2.80;1.40;;;6.70;99.90;;;;;;4917803;29;20510;-73
2022/04/29 04:58:09;;;;;;;1.40;1.13;;;6.80;99.90;;;;;;4902221;29;20904;-73
2022/04/29 05:00:36;;;;;;;2.92;1.33;;;6.80;99.90;;;;;;4886869;29;20079;-73
2022/04/29 05:03:01;;;;;;;3.25;1.85;;;6.90;99.90;;;;;;4902329;29;20051;-73
2022/04/29 05:05:27;;;;;;;1.75;1.50;;;7.00;99.90;;;;;;4917622;29;20059;-73
2022/04/29 05:07:53;;;;;;;1.63;1.10;;;7.10;99.90;;;;;;4917931;29;20043;-73
2022/04/29 05:10:20;;;;;;;0.93;0.90;;;7.20;99.90;;;;;;4902175;29;20479;-73
2022/04/29 05:12:47;;;;;;;2.33;1.50;;;7.30;99.90;;;;;;4917451;29;20098;-73
2022/04/29 05:15:16;;;;;;;1.25;0.98;;;7.40;99.90;;;;;;4917361;29;20058;-73
2022/04/29 05:17:43;;;;;;;2.33;1.35;;;7.50;99.90;;;;;;4917543;29;20054;-73
2022/04/29 05:20:11;;;;;;;1.92;1.30;;;7.50;99.90;;;;;;4917402;29;20048;-73
2022/04/29 05:22:37;;;;;;;3.80;1.98;;;7.60;99.90;;;;;;4934318;29;20060;-72
2022/04/29 05:25:04;;;;;;;5.70;2.40;;;7.70;99.90;;;;;;4917799;29;20146;-73
2022/04/29 05:27:30;;;;;;;4.15;1.92;;;7.70;99.90;;;;;;4917478;29;20059;-74
2022/04/29 05:29:57;;;;;;;4.03;2.33;;;7.80;99.90;;;;;;4917332;29;20582;-74
2022/04/29 05:32:24;;;;;;;2.95;1.70;;;7.80;99.90;;;;;;4901614;29;20579;-73
2022/04/29 05:34:51;;;;;;;1.90;1.58;;;7.80;99.90;;;;;;4901451;29;20058;-73
2022/04/29 05:37:17;;;;;;;;;;;7.90;99.90;;;;;;4901861;29;20110;-73
2022/04/29 05:42:27;;;;;;;1.35;0.95;;;8.00;99.90;;;;;;4916530;29;20054;-74
2022/04/29 05:44:53;;;;;;;1.63;1.00;;;8.00;99.90;;;;;;4916784;29;20471;-74
2022/04/29 05:47:19;;;;;;;1.10;1.00;;;8.10;99.90;;;;;;4901090;29;20042;-73
2022/04/29 05:49:45;;;;;;;1.35;1.00;;;8.20;99.90;;;;;;4917002;29;20043;-74
2022/04/29 05:52:11;;;;;;;1.75;1.35;;;8.20;99.90;;;;;;4916636;29;20566;-74
2022/04/29 05:54:37;;;;;;;3.05;1.73;;;8.30;99.90;;;;;;4934149;29;20071;-74
2022/04/29 05:57:04;;;;;;;2.05;1.40;;;8.20;99.90;;;;;;4916674;29;20138;-73
2022/04/29 05:59:30;;;;;;;2.05;1.60;;;8.20;99.90;;;;;;4933779;29;20040;-74
2022/04/29 06:01:56;;;;;;;3.90;1.70;;;8.20;99.90;;;;;;4916537;29;20103;-73
2022/04/29 06:04:22;;;;;;;7.55;2.47;;;8.20;99.90;;;;;;4916674;29;20043;-74
2022/04/29 06:06:48;;;;;;;7.85;2.10;;;8.30;99.90;;;;;;4916279;29;20511;-73
2022/04/29 06:09:13;;;;;;;5.22;2.10;;;8.30;99.90;;;;;;4916591;29;20047;-74
2022/04/29 06:11:39;;;;;;;3.15;1.70;;;8.40;99.90;;;;;;4900913;29;20054;-74
2022/04/29 06:14:05;;;;;;;4.85;1.60;;;8.40;99.90;;;;;;4916786;29;20132;-74
2022/04/29 06:16:31;;;;;;;5.63;1.70;;;8.50;99.90;;;;;;4933888;29;20044;-74
2022/04/29 06:18:57;;;;;;;3.35;1.77;;;8.60;99.90;;;;;;4916645;29;20499;-74
2022/04/29 06:21:22;;;;;;;4.30;1.95;;;8.60;99.90;;;;;;4916388;29;20476;-74
2022/04/29 06:23:48;;;;;;;2.88;1.80;;;8.70;99.90;;;;;;4916269;29;20068;-74
2022/04/29 06:26:14;;;;;;;2.22;1.60;;;8.70;99.90;;;;;;4916546;29;20062;-74
2022/04/29 06:28:40;;;;;;;3.08;1.77;;;8.80;99.90;;;;;;4916237;29;20039;-73
2022/04/29 06:31:06;;;;;;;4.07;1.80;;;8.90;99.90;;;;;;4933416;29;20118;-74
2022/04/29 06:33:34;;;;;;;2.72;1.48;;;9.00;99.90;;;;;;4916121;29;20437;-74
2022/04/29 06:36:01;;;;;;;5.78;1.90;;;9.10;99.90;;;;;;4916049;29;20047;-74
2022/04/29 06:38:27;;;;;;;2.20;1.50;;;9.10;99.90;;;;;;4916265;29;20403;-73
2022/04/29 06:40:55;;;;;;;;;;;9.20;99.90;;;;;;4900832;29;20052;-73
2022/04/29 06:43:22;;;;;;;1.60;1.27;;;9.20;99.90;;;;;;4933425;29;19930;-74
2022/04/29 06:45:47;;;;;;;;;;;9.30;99.90;;;;;;4900946;29;20047;-74
2022/04/29 06:48:13;;;;;;;2.55;1.30;;;9.40;99.90;;;;;;4933187;29;19930;-74
2022/04/29 06:50:40;;;;;;;2.25;1.42;;;9.50;99.90;;;;;;4900226;29;20519;-74
2022/04/29 06:53:06;;;;;;;4.20;1.45;;;9.50;99.90;;;;;;4916262;29;20055;-74
2022/04/29 06:55:35;;;;;;;2.45;1.25;;;9.50;99.90;;;;;;4919988;29;20047;-74
2022/04/29 06:58:01;;;;;;;3.75;1.80;;;9.50;99.90;;;;;;4904676;29;20047;-74
2022/04/29 07:00:27;;;;;;;1.75;1.02;;;9.50;99.90;;;;;;4904324;29;20056;-74
2022/04/29 07:02:52;;;;;;;3.22;1.10;;;9.50;99.90;;;;;;4904307;29;20134;-74
2022/04/29 07:05:18;;;;;;;2.22;1.02;;;9.50;99.90;;;;;;4919971;29;20055;-74
2022/04/29 07:07:44;;;;;;;2.40;1.20;;;9.50;99.90;;;;;;4919627;29;20051;-74
2022/04/29 07:10:09;;;;;;;2.22;1.30;;;9.50;99.90;;;;;;4904203;29;20068;-73
2022/04/29 07:12:39;;;;;;;2.70;1.08;;;9.40;99.90;;;;;;4919670;29;20056;-73
2022/04/29 07:15:06;;;;;;;2.58;1.27;;;9.30;99.90;;;;;;4888508;29;20119;-73
2022/04/29 07:17:32;;;;;;;3.42;1.48;;;9.30;99.90;;;;;;4920011;29;20055;-74
2022/04/29 07:19:58;;;;;;;3.72;1.85;;;9.30;99.90;;;;;;4919452;29;20058;-73
2022/04/29 07:22:24;;;;;;;3.55;1.70;;;9.20;99.90;;;;;;4936518;29;20111;-73
2022/04/29 07:24:50;;;;;;;;;;;9.20;99.90;;;;;;4919931;29;20204;-73
2022/04/29 07:27:17;;;;;;;3.50;1.63;;;9.20;99.90;;;;;;4903979;29;20013;-74
2022/04/29 07:29:43;;;;;;;3.25;1.38;;;9.20;99.90;;;;;;4919514;29;20051;-73
2022/04/29 07:32:09;;;;;;;2.83;1.10;;;9.20;99.90;;;;;;4919673;29;20051;-73
2022/04/29 07:42:49;;;;;;;2.60;1.20;;;9.40;99.90;;;;;;4906313;29;20044;-74
2022/04/29 07:45:15;;;;;;;5.20;1.63;;;9.50;99.90;;;;;;4903613;29;20404;-74
2022/04/29 07:47:40;;;;;;;4.40;1.50;;;9.60;99.90;;;;;;4919483;29;20126;-74
2022/04/29 07:50:06;;;;;;;3.80;1.30;;;9.50;99.90;;;;;;4903827;29;20491;-74
2022/04/29 07:52:34;;;;;;;2.95;1.40;;;9.70;99.90;;;;;;4936700;29;20039;-74
2022/04/29 07:55:00;;;;;;;2.92;1.15;;;9.70;99.90;;;;;;4903602;29;20420;-74
2022/04/29 07:57:25;;;;;;;3.05;1.33;;;9.70;99.90;;;;;;4918925;29;20111;-74
2022/04/29 07:59:51;;;;;;;3.95;1.23;;;9.80;99.90;;;;;;4919049;29;20051;-74
2022/04/29 08:02:17;;;;;;;2.75;1.23;;;10.00;99.90;;;;;;4919075;29;20158;-74
2022/04/29 08:04:46;;;;;;;2.45;1.00;;;10.10;99.90;;;;;;4935708;29;20469;-74
2022/04/29 08:07:12;;;;;;;3.08;1.20;;;10.20;99.90;;;;;;4918986;29;20086;-74
2022/04/29 08:09:38;;;;;;;;;;;10.30;99.90;;;;;;4903731;29;20044;-73
2022/04/29 08:12:05;;;;;;;3.28;1.30;;;10.40;99.90;;;;;;4919031;29;20005;-74
2022/04/29 08:14:31;;;;;;;4.00;1.30;;;10.30;99.90;;;;;;4903028;29;20538;-74
2022/04/29 08:16:57;;;;;;;6.38;1.20;;;10.20;99.90;;;;;;4918880;29;20071;-74
2022/04/29 08:19:23;;;;;;;3.88;1.13;;;10.20;99.90;;;;;;4918715;29;20059;-74
2022/04/29 08:21:50;;;;;;;3.58;1.27;;;10.10;99.90;;;;;;4902677;29;20460;-73
2022/04/29 08:24:16;;;;;;;3.17;1.15;;;10.00;99.90;;;;;;4903195;29;20123;-73
2022/04/29 08:26:42;;;;;;;3.30;1.20;;;10.10;99.90;;;;;;4918612;29;20484;-74
2022/04/29 08:29:10;;;;;;;2.17;1.02;;;10.10;99.90;;;;;;4918772;29;20092;-73
2022/04/29 08:31:36;;;;;;;3.50;1.30;;;10.10;99.90;;;;;;4903245;29;20047;-74
2022/04/29 08:34:03;;;;;;;1.98;1.23;;;10.20;99.90;;;;;;4918822;29;20055;-74
2022/04/29 08:36:30;;;;;;;3.35;1.20;;;10.40;99.90;;;;;;4918429;29;20170;-73
2022/04/29 08:38:57;;;;;;;2.30;1.10;;;10.40;99.90;;;;;;4918448;29;20582;-74
2022/04/29 08:41:24;;;;;;;3.67;1.40;;;10.40;99.90;;;;;;4918500;29;20056;-74
2022/04/29 08:43:50;;;;;;;2.75;1.50;;;10.40;99.90;;;;;;4918406;29;20048;-74
2022/04/29 08:46:21;;;;;;;3.22;1.80;;;10.50;99.90;;;;;;4917904;29;20048;-73
2022/04/29 08:48:49;;;;;;;4.47;1.45;;;10.40;99.90;;;;;;4918707;29;20396;-74
2022/04/29 08:51:14;;;;;;;4.13;1.58;;;10.40;99.90;;;;;;4902577;29;20054;-73
2022/04/29 08:53:40;;;;;;;3.78;1.70;;;10.40;99.90;;;;;;4902634;29;20039;-74
2022/04/29 08:58:53;;;;;;;5.47;1.50;;;10.30;99.90;;;;;;4918521;29;20051;-74
2022/04/29 09:01:21;;;;;;;2.08;1.20;;;10.50;99.90;;;;;;4918061;29;20075;-74
2022/04/29 09:03:48;;;;;;;3.40;1.40;;;10.50;99.90;;;;;;4902476;29;20419;-74
2022/04/29 09:06:17;;;;;;;5.68;1.42;;;10.70;99.90;;;;;;4917905;29;20058;-73
2022/04/29 09:08:46;;;;;;;4.32;1.77;;;10.80;99.90;;;;;;4918328;29;20048;-73
2022/04/29 09:11:26;;;;;;;3.92;1.30;;;10.70;99.90;;;;;;4918079;29;20055;-73
2022/04/29 09:13:53;;;;;;;3.13;1.40;;;10.90;99.90;;;;;;4918291;29;20043;-73
2022/04/29 09:16:19;;;;;;;1.70;1.05;;;10.80;99.90;;;;;;4917995;29;20522;-74
2022/04/29 09:18:47;;;;;;;3.10;1.60;;;10.90;99.90;;;;;;4901908;29;20057;-73
2022/04/29 09:21:33;;;;;;;2.53;1.10;;;10.80;99.90;;;;;;4918029;29;20142;-74
2022/04/29 09:24:05;;;;;;;3.77;1.50;;;11.00;99.90;;;;;;4918007;29;20103;-73
2022/04/29 09:26:35;;;;;;;3.13;1.40;;;10.90;99.90;;;;;;4917704;29;20404;-73
2022/04/29 09:29:20;;;;;;;4.15;1.60;;;10.90;99.90;;;;;;4901904;29;20079;-73
2022/04/29 09:31:58;;;;;;;3.53;1.50;;;10.80;99.90;;;;;;4902132;29;20491;-73
2022/04/29 09:34:43;;;;;;;4.53;1.40;;;10.80;99.90;;;;;;4935044;29;20049;-73
2022/04/29 09:37:20;;;;;;;2.47;1.30;;;10.80;99.90;;;;;;4917526;29;20039;-73
2022/04/29 09:40:02;;;;;;;3.70;1.50;;;10.70;99.90;;;;;;4917934;29;20079;-74
2022/04/29 09:42:39;;;;;;;4.40;2.00;;;10.70;99.90;;;;;;4934739;29;20670;-74
2022/04/29 09:45:18;;;;;;;3.88;1.80;;;10.60;99.90;;;;;;4917470;29;20079;-74
2022/04/29 09:47:44;;;;;;;3.40;1.70;;;10.50;99.90;;;;;;4917414;29;20066;-74
2022/04/29 09:50:10;;;;;;;3.95;1.60;;;10.40;99.90;;;;;;4901908;29;20085;-73
2022/04/29 09:52:40;;;;;;;2.45;1.75;;;10.40;99.90;;;;;;4917720;29;20111;-73
2022/04/29 09:55:18;;;;;;;3.67;1.63;;;10.40;99.90;;;;;;4934550;29;20051;-74
2022/04/29 09:57:58;;;;;;;3.67;1.70;;;10.30;99.90;;;;;;4917579;29;20059;-73
2022/04/29 10:00:25;;;;;;;3.15;1.70;;;10.40;99.90;;;;;;4901677;29;20047;-74
2022/04/29 10:02:51;;;;;;;4.25;1.95;;;10.40;99.90;;;;;;4917526;29;20183;-74
2022/04/29 10:05:17;;;;;;;3.63;1.95;;;10.20;99.90;;;;;;4917236;29;20187;-74
2022/04/29 10:07:43;;;;;;;3.83;2.00;;;10.20;99.90;;;;;;4917145;29;20123;-74
2022/04/29 10:10:10;;;;;;;4.80;2.20;;;10.10;99.90;;;;;;4917051;29;20051;-73
2022/04/29 10:12:36;;;;;;;3.03;1.92;;;9.90;99.90;;;;;;4917203;29;20127;-73
2022/04/29 10:15:09;;;;;;;2.88;2.00;;;10.00;99.90;;;;;;4917209;29;20106;-74
2022/04/29 10:23:10;;;;;;;4.07;1.90;;;10.10;99.90;;;;;;4917196;29;20150;-74
2022/04/29 10:25:41;;;;;;;3.28;2.03;;;10.00;99.90;;;;;;4916978;29;20052;-74
2022/04/29 10:28:08;;;;;;;3.60;1.60;;;10.10;99.90;;;;;;4916659;29;20056;-74
2022/04/29 10:30:36;;;;;;;6.32;2.30;;;10.20;99.90;;;;;;4901107;29;20048;-74
2022/04/29 10:33:16;;;;;;;2.50;1.60;;;10.20;99.90;;;;;;4933954;29;20129;-74
2022/04/29 10:35:42;;;;;;;5.30;2.33;;;10.30;99.90;;;;;;4916971;29;20052;-74
2022/04/29 10:38:36;;;;;;;3.40;2.28;;;10.30;99.90;;;;;;4917006;29;20106;-73
2022/04/29 10:41:26;;;;;;;5.00;2.10;;;10.20;99.90;;;;;;4913672;29;20091;-74
2022/04/29 10:43:51;;;;;;;4.20;2.10;;;10.20;99.90;;;;;;4916880;29;20419;-73
2022/04/29 10:46:35;;;;;;;2.33;1.67;;;10.20;99.90;;;;;;4916680;29;20047;-73
2022/04/29 10:49:27;;;;;;;3.13;1.70;;;10.20;99.90;;;;;;4916357;29;20080;-74
2022/04/29 10:51:55;;;;;;;3.22;1.88;;;10.20;99.90;;;;;;4916694;29;20043;-75
2022/04/29 10:54:42;;;;;;;4.18;1.90;;;10.10;99.90;;;;;;4916421;29;20044;-73
2022/04/29 10:57:12;;;;;;;4.82;2.03;;;10.10;99.90;;;;;;4916429;29;20127;-74
2022/04/29 10:59:57;;;;;;;3.53;1.90;;;10.10;99.90;;;;;;4917248;29;20778;-74
2022/04/29 11:02:31;;;;;;;4.32;1.98;;;10.10;99.90;;;;;;4902031;29;20139;-73
2022/04/29 11:04:59;;;;;;;4.28;1.80;;;10.10;99.90;;;;;;4903796;29;20136;-73
2022/04/29 11:07:47;;;;;;;4.10;2.05;;;10.20;99.90;;;;;;4916772;29;20055;-73
2022/04/29 11:10:22;;;;;;;5.38;2.03;;;10.40;99.90;;;;;;4917195;29;20044;-73
2022/04/29 11:12:59;;;;;;;3.60;1.95;;;10.40;99.90;;;;;;4916750;29;20048;-73
2022/04/29 11:15:41;;;;;;;3.58;1.75;;;10.40;99.90;;;;;;4916443;29;20055;-73
2022/04/29 11:18:14;;;;;;;3.70;1.90;;;10.60;99.90;;;;;;4933510;29;20518;-73
2022/04/29 11:20:43;;;;;;;5.13;2.38;;;10.60;99.90;;;;;;4916309;29;20391;-73
2022/04/29 11:25:57;;;;;;;2.75;1.85;;;11.00;99.90;;;;;;4915982;29;20051;-73
2022/04/29 11:28:24;;;;;;;2.90;1.60;;;11.00;99.90;;;;;;4916366;29;20107;-73
2022/04/29 11:31:16;;;;;;;3.38;1.90;;;11.20;99.90;;;;;;4900704;29;20043;-73
2022/04/29 11:33:42;;;;;;;3.92;1.98;;;11.20;99.90;;;;;;4884937;29;20043;-73
2022/04/29 11:36:08;;;;;;;4.05;1.60;;;11.00;99.90;;;;;;4933641;29;20059;-73
2022/04/29 11:38:44;;;;;;;;;;;10.90;99.90;;;;;;4916825;29;20052;-73
2022/04/29 11:41:17;;;;;;;3.80;1.58;;;11.00;99.90;;;;;;4918191;29;19970;-73
2022/04/29 11:43:49;;;;;;;3.35;1.70;;;11.00;99.90;;;;;;4919862;29;20056;-74
2022/04/29 11:46:16;;;;;;;3.25;1.67;;;11.00;99.90;;;;;;4904502;29;20052;-71
2022/04/29 11:48:51;;;;;;;;;;;11.00;99.90;;;;;;4920721;29;20495;-72
2022/04/29 11:51:16;;;;;;;5.32;1.80;;;11.10;99.90;;;;;;4919967;29;19985;-71
2022/04/29 11:54:11;;;;;;;3.78;1.63;;;11.20;99.90;;;;;;4903970;29;20475;-73
2022/04/29 11:56:39;;;;;;;4.40;1.77;;;11.20;99.90;;;;;;4919469;29;20079;-74
2022/04/29 11:59:09;;;;;;;3.33;1.52;;;11.10;99.90;;;;;;4919792;29;20056;-71
2022/04/29 12:01:36;;;;;;;3.78;1.50;;;11.20;99.90;;;;;;4903881;29;20496;-73
2022/04/29 12:04:04;;;;;;;2.97;1.58;;;11.00;99.90;;;;;;4919988;29;20167;-71
2022/04/29 12:06:31;;;;;;;6.53;1.70;;;10.80;99.90;;;;;;4919519;29;20076;-72
2022/04/29 12:08:56;;;;;;;;;;;10.80;99.90;;;;;;4919798;29;20048;-72
2022/04/29 12:11:30;;;;;;;4.53;1.80;;;10.90;99.90;;;;;;4919848;29;19919;-71
2022/04/29 12:13:56;;;;;;;5.50;2.10;;;11.00;99.90;;;;;;4904206;29;20052;-72
2022/04/29 12:16:22;;;;;;;3.10;1.58;;;11.00;99.90;;;;;;4919594;29;20064;-71
2022/04/29 12:18:49;;;;;;;3.10;1.73;;;11.10;99.90;;;;;;4903503;29;20487;-71
2022/04/29 12:21:25;;;;;;;3.05;1.60;;;11.10;99.90;;;;;;4903199;29;20503;-73
2022/04/29 12:23:52;;;;;;;3.47;1.80;;;11.10;99.90;;;;;;4903005;29;20056;-72
2022/04/29 12:26:18;;;;;;;2.30;1.45;;;11.00;99.90;;;;;;4918822;29;20179;-72
2022/04/29 12:28:56;;;;;;;3.15;1.75;;;11.10;99.90;;;;;;4903264;29;20503;-72
2022/04/29 12:37:00;;;;;;;2.17;1.42;;;11.20;99.90;;;;;;4905044;29;20062;-72
2022/04/29 12:39:41;;;;;;;3.60;1.20;;;11.30;99.90;;;;;;4918480;29;20455;-72
2022/04/29 12:42:09;;;;;;;2.67;1.30;;;11.30;99.90;;;;;;4918379;29;20043;-72
2022/04/29 12:47:42;;;;;;;3.67;1.63;;;11.20;99.90;;;;;;4918332;29;20124;-72
2022/04/29 12:50:31;;;;;;;4.07;1.80;;;11.10;99.90;;;;;;4918601;29;20052;-72
2022/04/29 12:53:09;;;;;;;2.72;1.60;;;11.10;99.90;;;;;;4918305;29;20043;-71
2022/04/29 12:55:53;;;;;;;4.20;1.60;;;11.00;99.90;;;;;;4918689;29;20075;-72
2022/04/29 12:58:26;;;;;;;3.42;1.60;;;11.00;99.90;;;;;;4918752;29;20150;-72
2022/04/29 13:00:52;;;;;;;2.53;1.63;;;11.00;99.90;;;;;;4918399;29;20761;-72
2022/04/29 13:03:21;;;;;;;4.68;1.90;;;11.00;99.90;;;;;;4918497;29;20154;-72
2022/04/29 13:05:47;;;;;;;5.82;2.25;;;10.90;99.90;;;;;;4917961;29;20047;-73
2022/04/29 13:08:13;;;;;;;3.25;1.60;;;10.90;99.90;;;;;;4917877;29;20479;-72
2022/04/29 13:10:46;;;;;;;4.90;1.70;;;11.10;99.90;;;;;;4918011;29;20054;-72
2022/04/29 13:13:13;;;;;;;3.58;1.73;;;11.20;99.90;;;;;;4918211;29;20372;-72
2022/04/29 13:15:41;;;;;;;3.85;1.50;;;11.40;99.90;;;;;;4917771;29;20067;-73
2022/04/29 13:18:07;;;;;;;3.38;1.60;;;11.50;99.90;;;;;;4917943;29;20087;-73
2022/04/29 13:20:33;;;;;;;3.75;1.60;;;11.50;99.90;;;;;;4902047;29;20551;-72
2022/04/29 13:22:59;;;;;;;3.05;1.67;;;11.30;99.90;;;;;;4917865;29;20055;-72
2022/04/29 13:25:25;;;;;;;3.55;1.73;;;11.30;99.90;;;;;;4917886;29;20507;-73
2022/04/29 13:27:50;;;;;;;3.15;1.90;;;11.10;99.90;;;;;;4917613;29;20087;-72
2022/04/29 13:30:16;;;;;;;3.88;2.08;;;11.00;99.90;;;;;;4918186;29;20036;-73
2022/04/29 13:32:42;;;;;;;3.08;1.88;;;10.90;99.90;;;;;;4918007;29;20036;-73
2022/04/29 13:35:08;;;;;;;3.47;1.92;;;10.90;99.90;;;;;;4901852;29;20440;-73